sensor_id;sensor_type;location;lat;lon;timestamp;P1;durP1;ratioP1;P2;durP2;ratioP2
35488;SDS011;21602;55.670;37.578;2022-10-17T00:01:42;6.38;;;3.42;;
35488;SDS011;21602;55.670;37.578;2022-10-17T00:04:07;6.03;;;2.97;;
35488;SDS011;21602;55.670;37.578;2022-10-17T00:06:33;4.85;;;3.15;;
35488;SDS011;21602;55.670;37.578;2022-10-17T00:08:59;4.97;;;3.00;;
35488;SDS011;21602;55.670;37.578;2022-10-17T00:11:25;4.35;;;2.85;;
35488;SDS011;21602;55.670;37.578;2022-10-17T00:13:52;4.20;;;3.25;;
35488;SDS011;21602;55.670;37.578;2022-10-17T00:16:23;4.43;;;3.00;;
35488;SDS011;21602;55.670;37.578;2022-10-17T00:18:49;5.20;;;3.22;;
35488;SDS011;21602;55.670;37.578;2022-10-17T00:21:16;6.03;;;2.83;;
35488;SDS011;21602;55.670;37.578;2022-10-17T00:23:43;5.95;;;3.08;;
35488;SDS011;21602;55.670;37.578;2022-10-17T00:26:09;8.38;;;3.20;;
35488;SDS011;21602;55.670;37.578;2022-10-17T00:28:35;4.90;;;3.05;;
35488;SDS011;21602;55.670;37.578;2022-10-17T00:31:02;4.60;;;2.92;;
35488;SDS011;21602;55.670;37.578;2022-10-17T00:33:29;4.18;;;2.53;;
35488;SDS011;21602;55.670;37.578;2022-10-17T00:38:30;4.38;;;2.95;;
35488;SDS011;21602;55.670;37.578;2022-10-17T00:40:56;4.47;;;2.58;;
35488;SDS011;21602;55.670;37.578;2022-10-17T00:43:21;5.80;;;3.10;;
35488;SDS011;21602;55.670;37.578;2022-10-17T00:45:47;4.90;;;3.42;;
35488;SDS011;21602;55.670;37.578;2022-10-17T00:48:13;3.65;;;2.65;;
35488;SDS011;21602;55.670;37.578;2022-10-17T00:50:40;4.72;;;2.90;;
35488;SDS011;21602;55.670;37.578;2022-10-17T00:53:09;4.50;;;3.45;;
35488;SDS011;21602;55.670;37.578;2022-10-17T00:55:44;5.47;;;2.83;;
35488;SDS011;21602;55.670;37.578;2022-10-17T00:58:14;4.65;;;3.00;;
35488;SDS011;21602;55.670;37.578;2022-10-17T01:00:41;9.13;;;3.10;;
35488;SDS011;21602;55.670;37.578;2022-10-17T01:03:07;5.22;;;3.17;;
35488;SDS011;21602;55.670;37.578;2022-10-17T01:05:33;4.95;;;3.22;;
35488;SDS011;21602;55.670;37.578;2022-10-17T01:08:00;5.05;;;2.90;;
35488;SDS011;21602;55.670;37.578;2022-10-17T01:10:28;4.43;;;3.08;;
35488;SDS011;21602;55.670;37.578;2022-10-17T01:15:49;5.60;;;3.35;;
35488;SDS011;21602;55.670;37.578;2022-10-17T01:34:55;5.97;;;3.47;;
35488;SDS011;21602;55.670;37.578;2022-10-17T01:37:31;5.30;;;3.38;;
35488;SDS011;21602;55.670;37.578;2022-10-17T01:42:32;7.95;;;2.85;;
35488;SDS011;21602;55.670;37.578;2022-10-17T01:45:03;6.88;;;3.33;;
35488;SDS011;21602;55.670;37.578;2022-10-17T01:47:38;4.18;;;2.90;;
35488;SDS011;21602;55.670;37.578;2022-10-17T01:50:10;5.22;;;2.70;;
35488;SDS011;21602;55.670;37.578;2022-10-17T01:52:45;6.15;;;3.10;;
35488;SDS011;21602;55.670;37.578;2022-10-17T01:55:17;7.07;;;3.28;;
35488;SDS011;21602;55.670;37.578;2022-10-17T01:57:55;3.53;;;2.78;;
35488;SDS011;21602;55.670;37.578;2022-10-17T02:00:25;3.38;;;2.58;;
35488;SDS011;21602;55.670;37.578;2022-10-17T02:03:00;7.00;;;2.58;;
35488;SDS011;21602;55.670;37.578;2022-10-17T02:05:36;4.85;;;3.25;;
35488;SDS011;21602;55.670;37.578;2022-10-17T02:08:04;6.90;;;2.80;;
35488;SDS011;21602;55.670;37.578;2022-10-17T02:11:14;4.47;;;2.72;;
35488;SDS011;21602;55.670;37.578;2022-10-17T02:13:34;7.25;;;2.60;;
35488;SDS011;21602;55.670;37.578;2022-10-17T02:16:12;3.10;;;2.80;;
35488;SDS011;21602;55.670;37.578;2022-10-17T02:19:06;7.20;;;2.88;;
35488;SDS011;21602;55.670;37.578;2022-10-17T02:24:34;6.03;;;2.70;;
35488;SDS011;21602;55.670;37.578;2022-10-17T02:27:36;5.45;;;3.30;;
35488;SDS011;21602;55.670;37.578;2022-10-17T02:30:07;5.75;;;2.80;;
35488;SDS011;21602;55.670;37.578;2022-10-17T02:35:08;3.88;;;2.60;;
35488;SDS011;21602;55.670;37.578;2022-10-17T02:37:38;6.00;;;3.35;;
35488;SDS011;21602;55.670;37.578;2022-10-17T02:40:08;3.92;;;2.80;;
35488;SDS011;21602;55.670;37.578;2022-10-17T02:42:37;6.10;;;2.83;;
35488;SDS011;21602;55.670;37.578;2022-10-17T02:45:03;3.20;;;2.60;;
35488;SDS011;21602;55.670;37.578;2022-10-17T02:47:35;5.80;;;2.60;;
35488;SDS011;21602;55.670;37.578;2022-10-17T02:50:08;7.15;;;2.70;;
35488;SDS011;21602;55.670;37.578;2022-10-17T02:52:43;4.05;;;3.05;;
35488;SDS011;21602;55.670;37.578;2022-10-17T02:55:21;8.73;;;3.25;;
35488;SDS011;21602;55.670;37.578;2022-10-17T02:57:58;6.05;;;3.08;;
35488;SDS011;21602;55.670;37.578;2022-10-17T03:00:30;4.95;;;2.90;;
35488;SDS011;21602;55.670;37.578;2022-10-17T03:02:57;4.57;;;2.70;;
35488;SDS011;21602;55.670;37.578;2022-10-17T03:05:24;5.40;;;2.80;;
35488;SDS011;21602;55.670;37.578;2022-10-17T03:07:52;6.50;;;2.97;;
35488;SDS011;21602;55.670;37.578;2022-10-17T03:10:19;5.00;;;2.60;;
35488;SDS011;21602;55.670;37.578;2022-10-17T03:12:46;7.55;;;2.97;;
35488;SDS011;21602;55.670;37.578;2022-10-17T03:15:12;3.97;;;2.97;;
35488;SDS011;21602;55.670;37.578;2022-10-17T03:17:39;8.07;;;3.07;;
35488;SDS011;21602;55.670;37.578;2022-10-17T03:20:06;4.82;;;2.72;;
35488;SDS011;21602;55.670;37.578;2022-10-17T03:22:32;4.22;;;3.00;;
35488;SDS011;21602;55.670;37.578;2022-10-17T03:25:00;4.50;;;2.20;;
35488;SDS011;21602;55.670;37.578;2022-10-17T03:27:29;3.95;;;2.50;;
35488;SDS011;21602;55.670;37.578;2022-10-17T03:29:55;5.00;;;3.05;;
35488;SDS011;21602;55.670;37.578;2022-10-17T03:32:21;5.85;;;2.83;;
35488;SDS011;21602;55.670;37.578;2022-10-17T03:34:47;2.85;;;2.35;;
35488;SDS011;21602;55.670;37.578;2022-10-17T03:37:12;5.13;;;3.20;;
35488;SDS011;21602;55.670;37.578;2022-10-17T03:39:39;4.55;;;3.10;;
35488;SDS011;21602;55.670;37.578;2022-10-17T03:42:05;5.93;;;2.78;;
35488;SDS011;21602;55.670;37.578;2022-10-17T03:44:31;4.57;;;2.83;;
35488;SDS011;21602;55.670;37.578;2022-10-17T03:46:58;5.05;;;2.95;;
35488;SDS011;21602;55.670;37.578;2022-10-17T03:49:24;4.47;;;3.03;;
35488;SDS011;21602;55.670;37.578;2022-10-17T03:51:49;3.38;;;2.65;;
35488;SDS011;21602;55.670;37.578;2022-10-17T03:54:16;7.30;;;2.45;;
35488;SDS011;21602;55.670;37.578;2022-10-17T03:56:42;4.20;;;3.00;;
35488;SDS011;21602;55.670;37.578;2022-10-17T03:59:12;9.38;;;3.75;;
35488;SDS011;21602;55.670;37.578;2022-10-17T04:01:39;3.83;;;3.17;;
35488;SDS011;21602;55.670;37.578;2022-10-17T04:04:06;4.65;;;2.90;;
35488;SDS011;21602;55.670;37.578;2022-10-17T04:06:34;7.43;;;2.90;;
35488;SDS011;21602;55.670;37.578;2022-10-17T04:09:00;5.03;;;2.65;;
35488;SDS011;21602;55.670;37.578;2022-10-17T04:11:42;7.53;;;3.55;;
35488;SDS011;21602;55.670;37.578;2022-10-17T04:14:08;5.72;;;2.80;;
35488;SDS011;21602;55.670;37.578;2022-10-17T04:16:35;3.88;;;2.50;;
35488;SDS011;21602;55.670;37.578;2022-10-17T04:19:09;8.10;;;3.47;;
35488;SDS011;21602;55.670;37.578;2022-10-17T04:21:40;7.18;;;3.33;;
35488;SDS011;21602;55.670;37.578;2022-10-17T04:24:07;5.03;;;2.83;;
35488;SDS011;21602;55.670;37.578;2022-10-17T04:26:42;4.35;;;2.90;;
35488;SDS011;21602;55.670;37.578;2022-10-17T04:29:08;4.40;;;2.90;;
35488;SDS011;21602;55.670;37.578;2022-10-17T04:31:34;9.60;;;3.20;;
35488;SDS011;21602;55.670;37.578;2022-10-17T04:34:16;8.95;;;2.67;;
35488;SDS011;21602;55.670;37.578;2022-10-17T04:36:42;5.32;;;3.50;;
35488;SDS011;21602;55.670;37.578;2022-10-17T04:39:07;6.95;;;3.50;;
35488;SDS011;21602;55.670;37.578;2022-10-17T04:41:34;6.55;;;2.95;;
35488;SDS011;21602;55.670;37.578;2022-10-17T04:44:00;6.82;;;2.72;;
35488;SDS011;21602;55.670;37.578;2022-10-17T04:46:29;6.15;;;3.13;;
35488;SDS011;21602;55.670;37.578;2022-10-17T04:48:55;6.22;;;3.00;;
35488;SDS011;21602;55.670;37.578;2022-10-17T04:51:20;6.88;;;2.97;;
35488;SDS011;21602;55.670;37.578;2022-10-17T04:54:15;7.60;;;3.67;;
35488;SDS011;21602;55.670;37.578;2022-10-17T04:59:11;3.92;;;3.13;;
35488;SDS011;21602;55.670;37.578;2022-10-17T05:04:05;5.97;;;3.50;;
35488;SDS011;21602;55.670;37.578;2022-10-17T05:06:31;6.68;;;3.13;;
35488;SDS011;21602;55.670;37.578;2022-10-17T05:09:16;7.75;;;3.00;;
35488;SDS011;21602;55.670;37.578;2022-10-17T05:11:42;9.02;;;3.50;;
35488;SDS011;21602;55.670;37.578;2022-10-17T05:14:09;5.25;;;3.63;;
35488;SDS011;21602;55.670;37.578;2022-10-17T05:16:36;5.93;;;3.17;;
35488;SDS011;21602;55.670;37.578;2022-10-17T05:19:02;6.05;;;3.35;;
35488;SDS011;21602;55.670;37.578;2022-10-17T05:21:34;5.45;;;3.45;;
35488;SDS011;21602;55.670;37.578;2022-10-17T05:24:09;6.60;;;3.17;;
35488;SDS011;21602;55.670;37.578;2022-10-17T05:26:37;7.90;;;3.58;;
35488;SDS011;21602;55.670;37.578;2022-10-17T05:29:03;5.32;;;3.60;;
35488;SDS011;21602;55.670;37.578;2022-10-17T05:31:34;6.55;;;3.35;;
35488;SDS011;21602;55.670;37.578;2022-10-17T05:34:00;6.90;;;3.63;;
35488;SDS011;21602;55.670;37.578;2022-10-17T05:36:29;5.80;;;3.28;;
35488;SDS011;21602;55.670;37.578;2022-10-17T05:38:56;7.72;;;3.30;;
35488;SDS011;21602;55.670;37.578;2022-10-17T05:41:22;10.23;;;2.80;;
35488;SDS011;21602;55.670;37.578;2022-10-17T05:43:47;6.43;;;3.47;;
35488;SDS011;21602;55.670;37.578;2022-10-17T05:46:18;12.73;;;3.95;;
35488;SDS011;21602;55.670;37.578;2022-10-17T05:48:46;5.28;;;3.28;;
35488;SDS011;21602;55.670;37.578;2022-10-17T05:51:12;3.97;;;3.08;;
35488;SDS011;21602;55.670;37.578;2022-10-17T05:53:39;6.45;;;3.20;;
35488;SDS011;21602;55.670;37.578;2022-10-17T05:56:12;10.05;;;3.75;;
35488;SDS011;21602;55.670;37.578;2022-10-17T05:58:39;7.77;;;3.47;;
35488;SDS011;21602;55.670;37.578;2022-10-17T06:01:18;9.75;;;4.20;;
35488;SDS011;21602;55.670;37.578;2022-10-17T06:03:44;8.70;;;3.83;;
35488;SDS011;21602;55.670;37.578;2022-10-17T06:06:11;6.80;;;3.13;;
35488;SDS011;21602;55.670;37.578;2022-10-17T06:08:41;4.00;;;2.78;;
35488;SDS011;21602;55.670;37.578;2022-10-17T06:11:12;11.15;;;3.53;;
35488;SDS011;21602;55.670;37.578;2022-10-17T06:13:38;5.25;;;3.00;;
35488;SDS011;21602;55.670;37.578;2022-10-17T06:16:10;9.25;;;2.90;;
35488;SDS011;21602;55.670;37.578;2022-10-17T06:18:37;7.63;;;4.03;;
35488;SDS011;21602;55.670;37.578;2022-10-17T06:21:03;5.97;;;3.15;;
35488;SDS011;21602;55.670;37.578;2022-10-17T06:23:32;5.30;;;3.08;;
35488;SDS011;21602;55.670;37.578;2022-10-17T06:26:27;14.60;;;3.50;;
35488;SDS011;21602;55.670;37.578;2022-10-17T06:28:53;6.80;;;3.13;;
35488;SDS011;21602;55.670;37.578;2022-10-17T06:31:20;4.72;;;3.15;;
35488;SDS011;21602;55.670;37.578;2022-10-17T06:33:45;4.93;;;3.28;;
35488;SDS011;21602;55.670;37.578;2022-10-17T06:36:12;7.90;;;3.50;;
35488;SDS011;21602;55.670;37.578;2022-10-17T06:38:39;4.00;;;3.10;;
35488;SDS011;21602;55.670;37.578;2022-10-17T06:41:12;7.18;;;3.42;;
35488;SDS011;21602;55.670;37.578;2022-10-17T06:43:40;8.87;;;3.93;;
35488;SDS011;21602;55.670;37.578;2022-10-17T06:46:28;6.72;;;3.25;;
35488;SDS011;21602;55.670;37.578;2022-10-17T06:48:59;8.70;;;3.33;;
35488;SDS011;21602;55.670;37.578;2022-10-17T06:51:34;5.57;;;3.40;;
35488;SDS011;21602;55.670;37.578;2022-10-17T06:54:02;8.10;;;4.75;;
35488;SDS011;21602;55.670;37.578;2022-10-17T06:56:58;11.52;;;3.78;;
35488;SDS011;21602;55.670;37.578;2022-10-17T06:59:44;7.25;;;3.00;;
35488;SDS011;21602;55.670;37.578;2022-10-17T07:02:16;6.00;;;3.58;;
35488;SDS011;21602;55.670;37.578;2022-10-17T07:04:44;7.65;;;3.40;;
35488;SDS011;21602;55.670;37.578;2022-10-17T07:07:11;15.90;;;3.70;;
35488;SDS011;21602;55.670;37.578;2022-10-17T07:09:37;6.97;;;3.00;;
35488;SDS011;21602;55.670;37.578;2022-10-17T07:12:02;5.90;;;3.50;;
35488;SDS011;21602;55.670;37.578;2022-10-17T07:14:32;10.05;;;3.47;;
35488;SDS011;21602;55.670;37.578;2022-10-17T07:16:59;9.98;;;3.65;;
35488;SDS011;21602;55.670;37.578;2022-10-17T07:19:27;8.40;;;3.85;;
35488;SDS011;21602;55.670;37.578;2022-10-17T07:21:53;6.57;;;3.72;;
35488;SDS011;21602;55.670;37.578;2022-10-17T07:24:20;10.20;;;4.07;;
35488;SDS011;21602;55.670;37.578;2022-10-17T07:26:53;10.52;;;4.35;;
35488;SDS011;21602;55.670;37.578;2022-10-17T07:29:19;5.53;;;3.17;;
35488;SDS011;21602;55.670;37.578;2022-10-17T07:32:03;9.85;;;3.92;;
35488;SDS011;21602;55.670;37.578;2022-10-17T07:34:33;5.22;;;3.30;;
35488;SDS011;21602;55.670;37.578;2022-10-17T07:37:00;8.13;;;3.30;;
35488;SDS011;21602;55.670;37.578;2022-10-17T07:39:26;9.80;;;4.22;;
35488;SDS011;21602;55.670;37.578;2022-10-17T07:41:53;4.22;;;2.83;;
35488;SDS011;21602;55.670;37.578;2022-10-17T07:44:20;9.57;;;4.30;;
35488;SDS011;21602;55.670;37.578;2022-10-17T07:49:15;5.13;;;3.28;;
35488;SDS011;21602;55.670;37.578;2022-10-17T07:51:41;8.00;;;3.75;;
35488;SDS011;21602;55.670;37.578;2022-10-17T07:54:07;8.80;;;3.47;;
35488;SDS011;21602;55.670;37.578;2022-10-17T07:56:33;8.32;;;3.72;;
35488;SDS011;21602;55.670;37.578;2022-10-17T07:58:59;7.78;;;3.38;;
35488;SDS011;21602;55.670;37.578;2022-10-17T08:01:24;13.75;;;4.00;;
35488;SDS011;21602;55.670;37.578;2022-10-17T08:03:52;5.93;;;3.30;;
35488;SDS011;21602;55.670;37.578;2022-10-17T08:06:18;5.28;;;3.78;;
35488;SDS011;21602;55.670;37.578;2022-10-17T08:08:45;6.28;;;4.47;;
35488;SDS011;21602;55.670;37.578;2022-10-17T08:11:12;7.55;;;4.05;;
35488;SDS011;21602;55.670;37.578;2022-10-17T08:13:39;11.30;;;3.72;;
35488;SDS011;21602;55.670;37.578;2022-10-17T08:16:06;7.18;;;3.42;;
35488;SDS011;21602;55.670;37.578;2022-10-17T08:18:34;5.57;;;3.63;;
35488;SDS011;21602;55.670;37.578;2022-10-17T08:21:01;6.28;;;3.40;;
35488;SDS011;21602;55.670;37.578;2022-10-17T08:23:32;8.82;;;4.00;;
35488;SDS011;21602;55.670;37.578;2022-10-17T08:25:59;5.20;;;3.67;;
35488;SDS011;21602;55.670;37.578;2022-10-17T08:28:26;6.78;;;4.22;;
35488;SDS011;21602;55.670;37.578;2022-10-17T08:30:52;6.53;;;4.28;;
35488;SDS011;21602;55.670;37.578;2022-10-17T08:33:25;6.93;;;3.30;;
35488;SDS011;21602;55.670;37.578;2022-10-17T08:35:51;5.93;;;3.95;;
35488;SDS011;21602;55.670;37.578;2022-10-17T08:38:17;12.15;;;4.40;;
35488;SDS011;21602;55.670;37.578;2022-10-17T08:40:44;9.93;;;4.32;;
35488;SDS011;21602;55.670;37.578;2022-10-17T08:46:21;9.00;;;4.82;;
35488;SDS011;21602;55.670;37.578;2022-10-17T08:48:49;10.15;;;3.90;;
35488;SDS011;21602;55.670;37.578;2022-10-17T08:51:20;7.03;;;4.18;;
35488;SDS011;21602;55.670;37.578;2022-10-17T08:53:55;7.75;;;3.58;;
35488;SDS011;21602;55.670;37.578;2022-10-17T08:56:23;9.43;;;4.47;;
35488;SDS011;21602;55.670;37.578;2022-10-17T08:58:51;8.82;;;3.97;;
35488;SDS011;21602;55.670;37.578;2022-10-17T09:06:53;8.55;;;5.55;;
35488;SDS011;21602;55.670;37.578;2022-10-17T09:12:25;12.48;;;6.82;;
35488;SDS011;21602;55.670;37.578;2022-10-17T09:20:45;12.32;;;6.20;;
35488;SDS011;21602;55.670;37.578;2022-10-17T09:26:11;12.85;;;6.00;;
35488;SDS011;21602;55.670;37.578;2022-10-17T09:28:39;10.15;;;5.88;;
35488;SDS011;21602;55.670;37.578;2022-10-17T09:31:28;10.55;;;5.78;;
35488;SDS011;21602;55.670;37.578;2022-10-17T09:34:02;12.07;;;5.50;;
35488;SDS011;21602;55.670;37.578;2022-10-17T09:36:33;13.05;;;6.47;;
35488;SDS011;21602;55.670;37.578;2022-10-17T09:46:45;9.52;;;5.80;;
35488;SDS011;21602;55.670;37.578;2022-10-17T09:49:17;6.38;;;4.88;;
35488;SDS011;21602;55.670;37.578;2022-10-17T09:51:48;11.68;;;5.88;;
35488;SDS011;21602;55.670;37.578;2022-10-17T09:54:18;10.15;;;6.68;;
35488;SDS011;21602;55.670;37.578;2022-10-17T09:59:29;10.65;;;5.82;;
35488;SDS011;21602;55.670;37.578;2022-10-17T10:08:04;7.50;;;4.68;;
35488;SDS011;21602;55.670;37.578;2022-10-17T10:10:43;9.15;;;5.85;;
35488;SDS011;21602;55.670;37.578;2022-10-17T10:15:39;7.85;;;5.18;;
35488;SDS011;21602;55.670;37.578;2022-10-17T10:23:38;9.00;;;5.63;;
35488;SDS011;21602;55.670;37.578;2022-10-17T10:28:36;9.20;;;5.38;;
35488;SDS011;21602;55.670;37.578;2022-10-17T10:31:03;9.27;;;5.20;;
35488;SDS011;21602;55.670;37.578;2022-10-17T10:33:32;9.65;;;4.90;;
35488;SDS011;21602;55.670;37.578;2022-10-17T10:36:03;7.70;;;4.38;;
35488;SDS011;21602;55.670;37.578;2022-10-17T10:38:32;10.68;;;5.63;;
35488;SDS011;21602;55.670;37.578;2022-10-17T10:41:03;11.32;;;6.07;;
35488;SDS011;21602;55.670;37.578;2022-10-17T10:43:42;7.63;;;4.68;;
35488;SDS011;21602;55.670;37.578;2022-10-17T10:46:21;10.43;;;5.85;;
35488;SDS011;21602;55.670;37.578;2022-10-17T10:48:57;7.43;;;5.05;;
35488;SDS011;21602;55.670;37.578;2022-10-17T10:51:26;8.27;;;4.97;;
35488;SDS011;21602;55.670;37.578;2022-10-17T10:56:40;13.05;;;6.00;;
35488;SDS011;21602;55.670;37.578;2022-10-17T10:59:12;10.70;;;6.53;;
35488;SDS011;21602;55.670;37.578;2022-10-17T11:12:30;8.80;;;6.00;;
35488;SDS011;21602;55.670;37.578;2022-10-17T11:20:26;9.75;;;5.80;;
35488;SDS011;21602;55.670;37.578;2022-10-17T11:25:35;12.07;;;7.50;;
35488;SDS011;21602;55.670;37.578;2022-10-17T11:28:10;12.65;;;6.55;;
35488;SDS011;21602;55.670;37.578;2022-10-17T11:30:51;8.63;;;6.28;;
35488;SDS011;21602;55.670;37.578;2022-10-17T11:33:24;12.75;;;6.45;;
35488;SDS011;21602;55.670;37.578;2022-10-17T11:35:56;12.25;;;6.30;;
35488;SDS011;21602;55.670;37.578;2022-10-17T11:41:36;15.15;;;7.65;;
35488;SDS011;21602;55.670;37.578;2022-10-17T11:47:04;11.85;;;7.38;;
35488;SDS011;21602;55.670;37.578;2022-10-17T11:49:33;9.95;;;5.97;;
35488;SDS011;21602;55.670;37.578;2022-10-17T11:55:00;10.00;;;7.03;;
35488;SDS011;21602;55.670;37.578;2022-10-17T12:00:26;11.15;;;7.78;;
35488;SDS011;21602;55.670;37.578;2022-10-17T12:06:24;10.85;;;7.40;;
35488;SDS011;21602;55.670;37.578;2022-10-17T12:12:34;13.10;;;8.13;;
35488;SDS011;21602;55.670;37.578;2022-10-17T12:17:36;14.05;;;7.38;;
35488;SDS011;21602;55.670;37.578;2022-10-17T12:22:49;14.32;;;8.63;;
35488;SDS011;21602;55.670;37.578;2022-10-17T12:25:19;13.45;;;8.02;;
35488;SDS011;21602;55.670;37.578;2022-10-17T12:28:09;12.27;;;7.45;;
35488;SDS011;21602;55.670;37.578;2022-10-17T12:30:49;14.27;;;8.23;;
35488;SDS011;21602;55.670;37.578;2022-10-17T12:33:23;14.07;;;8.23;;
35488;SDS011;21602;55.670;37.578;2022-10-17T12:38:47;13.55;;;8.23;;
35488;SDS011;21602;55.670;37.578;2022-10-17T12:46:49;13.52;;;8.30;;
35488;SDS011;21602;55.670;37.578;2022-10-17T12:52:13;11.93;;;7.63;;
35488;SDS011;21602;55.670;37.578;2022-10-17T12:54:40;10.35;;;7.18;;
35488;SDS011;21602;55.670;37.578;2022-10-17T13:00:16;14.15;;;8.27;;
35488;SDS011;21602;55.670;37.578;2022-10-17T13:02:42;15.45;;;8.90;;
35488;SDS011;21602;55.670;37.578;2022-10-17T13:05:13;14.75;;;9.23;;
35488;SDS011;21602;55.670;37.578;2022-10-17T13:07:43;10.98;;;8.25;;
35488;SDS011;21602;55.670;37.578;2022-10-17T13:10:20;14.20;;;8.27;;
35488;SDS011;21602;55.670;37.578;2022-10-17T13:12:52;27.00;;;9.13;;
35488;SDS011;21602;55.670;37.578;2022-10-17T13:15:25;11.82;;;8.23;;
35488;SDS011;21602;55.670;37.578;2022-10-17T13:17:56;9.82;;;6.55;;
35488;SDS011;21602;55.670;37.578;2022-10-17T13:20:27;13.05;;;7.90;;
35488;SDS011;21602;55.670;37.578;2022-10-17T13:22:54;14.73;;;8.55;;
35488;SDS011;21602;55.670;37.578;2022-10-17T13:25:22;14.80;;;8.35;;
35488;SDS011;21602;55.670;37.578;2022-10-17T13:27:49;12.55;;;8.93;;
35488;SDS011;21602;55.670;37.578;2022-10-17T13:32:52;14.77;;;9.27;;
35488;SDS011;21602;55.670;37.578;2022-10-17T13:35:32;14.30;;;8.57;;
35488;SDS011;21602;55.670;37.578;2022-10-17T13:38:00;13.85;;;8.45;;
35488;SDS011;21602;55.670;37.578;2022-10-17T13:40:29;15.07;;;9.32;;
35488;SDS011;21602;55.670;37.578;2022-10-17T13:43:02;13.93;;;8.80;;
35488;SDS011;21602;55.670;37.578;2022-10-17T13:45:31;18.42;;;10.45;;
35488;SDS011;21602;55.670;37.578;2022-10-17T13:48:05;12.93;;;8.40;;
35488;SDS011;21602;55.670;37.578;2022-10-17T13:50:41;17.48;;;9.85;;
35488;SDS011;21602;55.670;37.578;2022-10-17T13:56:04;11.70;;;8.38;;
35488;SDS011;21602;55.670;37.578;2022-10-17T13:58:43;13.70;;;9.00;;
35488;SDS011;21602;55.670;37.578;2022-10-17T14:01:14;13.43;;;8.65;;
35488;SDS011;21602;55.670;37.578;2022-10-17T14:03:41;14.93;;;9.13;;
35488;SDS011;21602;55.670;37.578;2022-10-17T14:08:49;10.85;;;7.72;;
35488;SDS011;21602;55.670;37.578;2022-10-17T14:11:55;13.02;;;7.95;;
35488;SDS011;21602;55.670;37.578;2022-10-17T14:14:24;16.25;;;8.82;;
35488;SDS011;21602;55.670;37.578;2022-10-17T14:16:51;16.17;;;8.90;;
35488;SDS011;21602;55.670;37.578;2022-10-17T14:21:51;14.70;;;8.32;;
35488;SDS011;21602;55.670;37.578;2022-10-17T14:29:25;15.90;;;8.95;;
35488;SDS011;21602;55.670;37.578;2022-10-17T14:34:27;17.88;;;9.63;;
35488;SDS011;21602;55.670;37.578;2022-10-17T14:36:56;14.68;;;8.88;;
35488;SDS011;21602;55.670;37.578;2022-10-17T14:39:23;14.45;;;8.27;;
35488;SDS011;21602;55.670;37.578;2022-10-17T14:41:50;15.20;;;8.90;;
35488;SDS011;21602;55.670;37.578;2022-10-17T14:44:21;16.88;;;9.43;;
35488;SDS011;21602;55.670;37.578;2022-10-17T14:46:54;13.50;;;8.73;;
35488;SDS011;21602;55.670;37.578;2022-10-17T14:49:37;11.85;;;7.60;;
35488;SDS011;21602;55.670;37.578;2022-10-17T14:54:49;14.25;;;8.45;;
35488;SDS011;21602;55.670;37.578;2022-10-17T14:59:47;14.82;;;8.88;;
35488;SDS011;21602;55.670;37.578;2022-10-17T15:02:13;16.55;;;8.90;;
35488;SDS011;21602;55.670;37.578;2022-10-17T15:07:14;13.55;;;7.78;;
35488;SDS011;21602;55.670;37.578;2022-10-17T15:09:41;16.15;;;9.88;;
35488;SDS011;21602;55.670;37.578;2022-10-17T15:12:16;13.80;;;8.68;;
35488;SDS011;21602;55.670;37.578;2022-10-17T15:14:49;17.48;;;8.95;;
35488;SDS011;21602;55.670;37.578;2022-10-17T15:19:53;18.42;;;9.43;;
35488;SDS011;21602;55.670;37.578;2022-10-17T15:22:19;13.15;;;8.20;;
35488;SDS011;21602;55.670;37.578;2022-10-17T15:24:45;14.82;;;8.93;;
35488;SDS011;21602;55.670;37.578;2022-10-17T15:27:15;12.20;;;8.27;;
35488;SDS011;21602;55.670;37.578;2022-10-17T15:29:45;14.38;;;9.57;;
35488;SDS011;21602;55.670;37.578;2022-10-17T15:32:11;16.08;;;9.18;;
35488;SDS011;21602;55.670;37.578;2022-10-17T15:34:37;17.70;;;9.50;;
35488;SDS011;21602;55.670;37.578;2022-10-17T15:37:04;14.23;;;9.18;;
35488;SDS011;21602;55.670;37.578;2022-10-17T15:39:31;16.57;;;10.17;;
35488;SDS011;21602;55.670;37.578;2022-10-17T15:41:58;16.58;;;8.90;;
35488;SDS011;21602;55.670;37.578;2022-10-17T15:44:24;15.75;;;8.82;;
35488;SDS011;21602;55.670;37.578;2022-10-17T15:46:50;14.07;;;9.63;;
35488;SDS011;21602;55.670;37.578;2022-10-17T15:49:16;16.77;;;9.57;;
35488;SDS011;21602;55.670;37.578;2022-10-17T15:51:44;16.48;;;9.57;;
35488;SDS011;21602;55.670;37.578;2022-10-17T15:54:10;18.48;;;10.00;;
35488;SDS011;21602;55.670;37.578;2022-10-17T15:56:37;15.68;;;8.70;;
35488;SDS011;21602;55.670;37.578;2022-10-17T15:59:06;15.15;;;9.70;;
35488;SDS011;21602;55.670;37.578;2022-10-17T16:01:38;19.50;;;10.15;;
35488;SDS011;21602;55.670;37.578;2022-10-17T16:04:05;13.43;;;8.82;;
35488;SDS011;21602;55.670;37.578;2022-10-17T16:06:31;14.27;;;8.90;;
35488;SDS011;21602;55.670;37.578;2022-10-17T16:08:56;20.00;;;11.82;;
35488;SDS011;21602;55.670;37.578;2022-10-17T16:13:54;15.02;;;9.05;;
35488;SDS011;21602;55.670;37.578;2022-10-17T16:16:23;15.68;;;8.77;;
35488;SDS011;21602;55.670;37.578;2022-10-17T16:18:48;16.85;;;9.10;;
35488;SDS011;21602;55.670;37.578;2022-10-17T16:21:14;15.43;;;10.02;;
35488;SDS011;21602;55.670;37.578;2022-10-17T16:23:42;13.23;;;8.88;;
35488;SDS011;21602;55.670;37.578;2022-10-17T16:26:09;15.05;;;9.60;;
35488;SDS011;21602;55.670;37.578;2022-10-17T16:28:39;14.75;;;9.05;;
35488;SDS011;21602;55.670;37.578;2022-10-17T16:31:11;16.67;;;9.25;;
35488;SDS011;21602;55.670;37.578;2022-10-17T16:33:46;12.48;;;8.63;;
35488;SDS011;21602;55.670;37.578;2022-10-17T16:36:13;17.45;;;9.80;;
35488;SDS011;21602;55.670;37.578;2022-10-17T16:38:39;21.10;;;10.27;;
35488;SDS011;21602;55.670;37.578;2022-10-17T16:41:08;13.07;;;8.50;;
35488;SDS011;21602;55.670;37.578;2022-10-17T16:43:43;17.15;;;9.90;;
35488;SDS011;21602;55.670;37.578;2022-10-17T16:46:09;15.63;;;9.15;;
35488;SDS011;21602;55.670;37.578;2022-10-17T16:48:34;13.50;;;8.82;;
35488;SDS011;21602;55.670;37.578;2022-10-17T16:51:00;12.02;;;8.38;;
35488;SDS011;21602;55.670;37.578;2022-10-17T16:53:26;15.77;;;9.30;;
35488;SDS011;21602;55.670;37.578;2022-10-17T16:56:02;14.63;;;8.65;;
35488;SDS011;21602;55.670;37.578;2022-10-17T16:58:28;13.50;;;8.25;;
35488;SDS011;21602;55.670;37.578;2022-10-17T17:01:03;20.65;;;9.10;;
35488;SDS011;21602;55.670;37.578;2022-10-17T17:03:37;23.23;;;9.80;;
35488;SDS011;21602;55.670;37.578;2022-10-17T17:06:05;16.40;;;9.15;;
35488;SDS011;21602;55.670;37.578;2022-10-17T17:08:32;14.38;;;7.78;;
35488;SDS011;21602;55.670;37.578;2022-10-17T17:10:59;16.90;;;9.10;;
35488;SDS011;21602;55.670;37.578;2022-10-17T17:13:25;18.05;;;9.20;;
35488;SDS011;21602;55.670;37.578;2022-10-17T17:16:00;15.65;;;9.07;;
35488;SDS011;21602;55.670;37.578;2022-10-17T17:18:31;18.95;;;9.48;;
35488;SDS011;21602;55.670;37.578;2022-10-17T17:21:00;14.30;;;8.65;;
35488;SDS011;21602;55.670;37.578;2022-10-17T17:23:34;14.07;;;9.20;;
35488;SDS011;21602;55.670;37.578;2022-10-17T17:26:07;17.27;;;9.15;;
35488;SDS011;21602;55.670;37.578;2022-10-17T17:28:34;12.55;;;9.23;;
35488;SDS011;21602;55.670;37.578;2022-10-17T17:31:04;13.13;;;9.23;;
35488;SDS011;21602;55.670;37.578;2022-10-17T17:33:34;18.25;;;9.88;;
35488;SDS011;21602;55.670;37.578;2022-10-17T17:36:01;13.27;;;9.02;;
35488;SDS011;21602;55.670;37.578;2022-10-17T17:38:31;12.05;;;8.57;;
35488;SDS011;21602;55.670;37.578;2022-10-17T17:40:58;12.48;;;8.88;;